sensor_id;sensor_type;location;lat;lon;timestamp;P1;durP1;ratioP1;P2;durP2;ratioP2
14394;SDS011;7282;49.204;10.652;2023-05-18T00:02:04;6.63;;;4.53;;
14394;SDS011;7282;49.204;10.652;2023-05-18T00:04:31;6.77;;;4.87;;
14394;SDS011;7282;49.204;10.652;2023-05-18T00:06:59;7.70;;;4.67;;
14394;SDS011;7282;49.204;10.652;2023-05-18T00:09:32;7.67;;;4.83;;
14394;SDS011;7282;49.204;10.652;2023-05-18T00:11:59;6.67;;;4.30;;
14394;SDS011;7282;49.204;10.652;2023-05-18T00:14:26;7.53;;;4.57;;
14394;SDS011;7282;49.204;10.652;2023-05-18T00:16:53;6.87;;;5.00;;
14394;SDS011;7282;49.204;10.652;2023-05-18T00:19:21;9.03;;;4.47;;
14394;SDS011;7282;49.204;10.652;2023-05-18T00:21:49;7.87;;;4.53;;
14394;SDS011;7282;49.204;10.652;2023-05-18T00:24:16;9.07;;;4.93;;
14394;SDS011;7282;49.204;10.652;2023-05-18T00:26:44;10.20;;;4.83;;
14394;SDS011;7282;49.204;10.652;2023-05-18T00:29:11;7.50;;;4.90;;
14394;SDS011;7282;49.204;10.652;2023-05-18T00:31:38;6.97;;;4.80;;
14394;SDS011;7282;49.204;10.652;2023-05-18T00:34:05;6.60;;;4.30;;
14394;SDS011;7282;49.204;10.652;2023-05-18T00:36:32;8.13;;;4.43;;
14394;SDS011;7282;49.204;10.652;2023-05-18T00:38:58;6.53;;;4.30;;
14394;SDS011;7282;49.204;10.652;2023-05-18T00:41:25;8.33;;;4.63;;
14394;SDS011;7282;49.204;10.652;2023-05-18T00:43:53;7.83;;;4.73;;
14394;SDS011;7282;49.204;10.652;2023-05-18T00:46:20;7.77;;;4.03;;
14394;SDS011;7282;49.204;10.652;2023-05-18T00:48:47;9.57;;;4.70;;
14394;SDS011;7282;49.204;10.652;2023-05-18T00:51:15;6.03;;;4.23;;
14394;SDS011;7282;49.204;10.652;2023-05-18T00:53:42;5.93;;;4.50;;
14394;SDS011;7282;49.204;10.652;2023-05-18T00:56:09;5.97;;;4.23;;
14394;SDS011;7282;49.204;10.652;2023-05-18T00:58:38;7.30;;;4.30;;
14394;SDS011;7282;49.204;10.652;2023-05-18T01:01:06;7.57;;;4.40;;
14394;SDS011;7282;49.204;10.652;2023-05-18T01:03:35;9.37;;;4.63;;
14394;SDS011;7282;49.204;10.652;2023-05-18T01:06:08;8.73;;;4.77;;
14394;SDS011;7282;49.204;10.652;2023-05-18T01:08:35;6.13;;;4.40;;
14394;SDS011;7282;49.204;10.652;2023-05-18T01:11:18;7.37;;;4.43;;
14394;SDS011;7282;49.204;10.652;2023-05-18T01:13:53;5.67;;;4.23;;
14394;SDS011;7282;49.204;10.652;2023-05-18T01:16:19;6.23;;;4.30;;
14394;SDS011;7282;49.204;10.652;2023-05-18T01:18:49;6.63;;;4.40;;
14394;SDS011;7282;49.204;10.652;2023-05-18T01:21:31;8.50;;;4.80;;
14394;SDS011;7282;49.204;10.652;2023-05-18T01:26:33;4.60;;;3.87;;
14394;SDS011;7282;49.204;10.652;2023-05-18T01:29:05;6.20;;;4.23;;
14394;SDS011;7282;49.204;10.652;2023-05-18T01:31:33;8.53;;;4.20;;
14394;SDS011;7282;49.204;10.652;2023-05-18T01:34:00;6.00;;;4.20;;
14394;SDS011;7282;49.204;10.652;2023-05-18T01:36:27;7.37;;;4.07;;
14394;SDS011;7282;49.204;10.652;2023-05-18T01:38:54;8.13;;;4.30;;
14394;SDS011;7282;49.204;10.652;2023-05-18T01:41:22;9.23;;;4.63;;
14394;SDS011;7282;49.204;10.652;2023-05-18T01:44:00;6.93;;;4.40;;
14394;SDS011;7282;49.204;10.652;2023-05-18T01:49:16;5.13;;;4.07;;
14394;SDS011;7282;49.204;10.652;2023-05-18T01:51:35;5.57;;;3.80;;
14394;SDS011;7282;49.204;10.652;2023-05-18T01:54:04;4.97;;;4.03;;
14394;SDS011;7282;49.204;10.652;2023-05-18T01:56:32;6.27;;;4.30;;
14394;SDS011;7282;49.204;10.652;2023-05-18T01:58:59;6.43;;;4.13;;
14394;SDS011;7282;49.204;10.652;2023-05-18T02:01:25;9.07;;;4.20;;
14394;SDS011;7282;49.204;10.652;2023-05-18T02:03:52;6.23;;;4.17;;
14394;SDS011;7282;49.204;10.652;2023-05-18T02:06:19;7.33;;;4.30;;
14394;SDS011;7282;49.204;10.652;2023-05-18T02:08:46;7.93;;;4.57;;
14394;SDS011;7282;49.204;10.652;2023-05-18T02:11:12;7.60;;;4.30;;
14394;SDS011;7282;49.204;10.652;2023-05-18T02:13:39;5.93;;;4.00;;
14394;SDS011;7282;49.204;10.652;2023-05-18T02:16:06;7.93;;;4.03;;
14394;SDS011;7282;49.204;10.652;2023-05-18T02:18:33;5.73;;;3.70;;
14394;SDS011;7282;49.204;10.652;2023-05-18T02:21:01;8.30;;;4.27;;
14394;SDS011;7282;49.204;10.652;2023-05-18T02:23:29;4.47;;;3.73;;
14394;SDS011;7282;49.204;10.652;2023-05-18T02:25:56;6.63;;;3.73;;
14394;SDS011;7282;49.204;10.652;2023-05-18T02:28:23;7.93;;;4.13;;
14394;SDS011;7282;49.204;10.652;2023-05-18T02:30:49;5.47;;;4.00;;
14394;SDS011;7282;49.204;10.652;2023-05-18T02:33:16;7.37;;;4.20;;
14394;SDS011;7282;49.204;10.652;2023-05-18T02:35:44;7.00;;;3.67;;
14394;SDS011;7282;49.204;10.652;2023-05-18T02:38:11;5.23;;;3.70;;
14394;SDS011;7282;49.204;10.652;2023-05-18T02:40:38;11.53;;;4.40;;
14394;SDS011;7282;49.204;10.652;2023-05-18T02:43:05;7.30;;;4.30;;
14394;SDS011;7282;49.204;10.652;2023-05-18T02:45:31;7.57;;;3.90;;
14394;SDS011;7282;49.204;10.652;2023-05-18T02:47:58;5.83;;;4.17;;
14394;SDS011;7282;49.204;10.652;2023-05-18T02:50:25;6.97;;;3.60;;
14394;SDS011;7282;49.204;10.652;2023-05-18T02:52:51;6.47;;;3.87;;
14394;SDS011;7282;49.204;10.652;2023-05-18T02:55:18;6.80;;;4.17;;
14394;SDS011;7282;49.204;10.652;2023-05-18T02:57:45;6.83;;;4.33;;
14394;SDS011;7282;49.204;10.652;2023-05-18T03:00:12;6.43;;;3.73;;
14394;SDS011;7282;49.204;10.652;2023-05-18T03:02:41;8.33;;;4.43;;
14394;SDS011;7282;49.204;10.652;2023-05-18T03:05:09;5.37;;;3.67;;
14394;SDS011;7282;49.204;10.652;2023-05-18T03:07:35;5.60;;;4.10;;
14394;SDS011;7282;49.204;10.652;2023-05-18T03:10:02;6.93;;;4.17;;
14394;SDS011;7282;49.204;10.652;2023-05-18T03:12:29;7.07;;;4.30;;
14394;SDS011;7282;49.204;10.652;2023-05-18T03:14:56;6.10;;;4.00;;
14394;SDS011;7282;49.204;10.652;2023-05-18T03:17:22;7.93;;;4.23;;
14394;SDS011;7282;49.204;10.652;2023-05-18T03:19:49;7.03;;;4.00;;
14394;SDS011;7282;49.204;10.652;2023-05-18T03:22:16;7.23;;;4.07;;
14394;SDS011;7282;49.204;10.652;2023-05-18T03:24:43;4.60;;;3.60;;
14394;SDS011;7282;49.204;10.652;2023-05-18T03:27:09;7.47;;;4.37;;
14394;SDS011;7282;49.204;10.652;2023-05-18T03:29:37;8.03;;;4.13;;
14394;SDS011;7282;49.204;10.652;2023-05-18T03:32:04;7.90;;;4.23;;
14394;SDS011;7282;49.204;10.652;2023-05-18T03:34:31;5.97;;;4.10;;
14394;SDS011;7282;49.204;10.652;2023-05-18T03:36:58;7.43;;;4.00;;
14394;SDS011;7282;49.204;10.652;2023-05-18T03:39:25;7.67;;;4.00;;
14394;SDS011;7282;49.204;10.652;2023-05-18T03:41:51;5.77;;;3.93;;
14394;SDS011;7282;49.204;10.652;2023-05-18T03:44:18;7.80;;;3.80;;
14394;SDS011;7282;49.204;10.652;2023-05-18T03:46:45;6.70;;;4.30;;
14394;SDS011;7282;49.204;10.652;2023-05-18T03:49:11;5.60;;;4.27;;
14394;SDS011;7282;49.204;10.652;2023-05-18T03:51:38;4.77;;;3.87;;
14394;SDS011;7282;49.204;10.652;2023-05-18T03:54:05;9.77;;;4.87;;
14394;SDS011;7282;49.204;10.652;2023-05-18T03:56:32;6.27;;;4.03;;
14394;SDS011;7282;49.204;10.652;2023-05-18T03:58:58;6.73;;;4.07;;
14394;SDS011;7282;49.204;10.652;2023-05-18T04:01:25;8.47;;;3.90;;
14394;SDS011;7282;49.204;10.652;2023-05-18T04:03:54;6.93;;;4.53;;
14394;SDS011;7282;49.204;10.652;2023-05-18T04:06:21;7.87;;;3.90;;
14394;SDS011;7282;49.204;10.652;2023-05-18T04:08:48;6.43;;;4.40;;
14394;SDS011;7282;49.204;10.652;2023-05-18T04:11:15;10.23;;;4.40;;
14394;SDS011;7282;49.204;10.652;2023-05-18T04:13:42;7.30;;;4.37;;
14394;SDS011;7282;49.204;10.652;2023-05-18T04:16:09;9.73;;;4.10;;
14394;SDS011;7282;49.204;10.652;2023-05-18T04:18:38;6.80;;;4.20;;
14394;SDS011;7282;49.204;10.652;2023-05-18T04:21:05;8.33;;;4.27;;
14394;SDS011;7282;49.204;10.652;2023-05-18T04:23:32;7.67;;;4.40;;
14394;SDS011;7282;49.204;10.652;2023-05-18T04:26:00;6.93;;;4.60;;
14394;SDS011;7282;49.204;10.652;2023-05-18T04:28:27;5.83;;;3.93;;
14394;SDS011;7282;49.204;10.652;2023-05-18T04:30:54;8.00;;;4.20;;
14394;SDS011;7282;49.204;10.652;2023-05-18T04:33:20;11.03;;;4.40;;
14394;SDS011;7282;49.204;10.652;2023-05-18T04:35:47;7.43;;;4.57;;
14394;SDS011;7282;49.204;10.652;2023-05-18T04:38:14;7.23;;;4.23;;
14394;SDS011;7282;49.204;10.652;2023-05-18T04:40:41;7.73;;;3.97;;
14394;SDS011;7282;49.204;10.652;2023-05-18T04:43:09;4.57;;;3.43;;
14394;SDS011;7282;49.204;10.652;2023-05-18T04:45:35;6.73;;;4.40;;
14394;SDS011;7282;49.204;10.652;2023-05-18T04:48:02;4.77;;;3.63;;
14394;SDS011;7282;49.204;10.652;2023-05-18T04:50:29;8.70;;;4.83;;
14394;SDS011;7282;49.204;10.652;2023-05-18T04:52:55;9.00;;;4.80;;
14394;SDS011;7282;49.204;10.652;2023-05-18T04:55:23;8.13;;;4.57;;
14394;SDS011;7282;49.204;10.652;2023-05-18T04:57:52;7.10;;;4.50;;
14394;SDS011;7282;49.204;10.652;2023-05-18T05:00:22;5.87;;;4.63;;
14394;SDS011;7282;49.204;10.652;2023-05-18T05:02:49;7.37;;;4.43;;
14394;SDS011;7282;49.204;10.652;2023-05-18T05:05:16;6.73;;;4.00;;
14394;SDS011;7282;49.204;10.652;2023-05-18T05:07:43;10.00;;;5.07;;
14394;SDS011;7282;49.204;10.652;2023-05-18T05:10:10;6.80;;;4.53;;
14394;SDS011;7282;49.204;10.652;2023-05-18T05:12:37;6.93;;;4.10;;
14394;SDS011;7282;49.204;10.652;2023-05-18T05:15:04;8.30;;;4.80;;
14394;SDS011;7282;49.204;10.652;2023-05-18T05:17:30;6.83;;;4.43;;
14394;SDS011;7282;49.204;10.652;2023-05-18T05:19:57;6.87;;;4.03;;
14394;SDS011;7282;49.204;10.652;2023-05-18T05:22:24;7.83;;;4.37;;
14394;SDS011;7282;49.204;10.652;2023-05-18T05:24:51;7.77;;;3.87;;
14394;SDS011;7282;49.204;10.652;2023-05-18T05:27:17;7.63;;;4.20;;
14394;SDS011;7282;49.204;10.652;2023-05-18T05:29:45;5.10;;;3.93;;
14394;SDS011;7282;49.204;10.652;2023-05-18T05:32:12;8.77;;;4.50;;
14394;SDS011;7282;49.204;10.652;2023-05-18T05:34:38;8.83;;;3.83;;
14394;SDS011;7282;49.204;10.652;2023-05-18T05:37:05;7.87;;;4.03;;
14394;SDS011;7282;49.204;10.652;2023-05-18T05:39:32;10.73;;;4.30;;
14394;SDS011;7282;49.204;10.652;2023-05-18T05:41:59;7.10;;;4.83;;
14394;SDS011;7282;49.204;10.652;2023-05-18T05:44:25;9.00;;;4.50;;
14394;SDS011;7282;49.204;10.652;2023-05-18T05:46:52;5.37;;;3.60;;
14394;SDS011;7282;49.204;10.652;2023-05-18T05:49:19;7.77;;;3.97;;
14394;SDS011;7282;49.204;10.652;2023-05-18T05:51:45;6.30;;;3.60;;
14394;SDS011;7282;49.204;10.652;2023-05-18T05:54:12;5.03;;;3.37;;
14394;SDS011;7282;49.204;10.652;2023-05-18T05:56:39;6.37;;;3.83;;
14394;SDS011;7282;49.204;10.652;2023-05-18T05:59:05;5.47;;;3.70;;
14394;SDS011;7282;49.204;10.652;2023-05-18T06:01:32;6.03;;;3.43;;
14394;SDS011;7282;49.204;10.652;2023-05-18T06:04:00;7.63;;;4.03;;
14394;SDS011;7282;49.204;10.652;2023-05-18T06:06:27;8.40;;;3.87;;
14394;SDS011;7282;49.204;10.652;2023-05-18T06:08:54;7.93;;;3.77;;
14394;SDS011;7282;49.204;10.652;2023-05-18T06:11:21;9.40;;;3.93;;
14394;SDS011;7282;49.204;10.652;2023-05-18T06:13:47;7.17;;;4.07;;
14394;SDS011;7282;49.204;10.652;2023-05-18T06:16:14;5.77;;;3.73;;
14394;SDS011;7282;49.204;10.652;2023-05-18T06:18:41;6.23;;;3.53;;
14394;SDS011;7282;49.204;10.652;2023-05-18T06:21:08;5.10;;;3.60;;
14394;SDS011;7282;49.204;10.652;2023-05-18T06:23:34;8.27;;;4.10;;
14394;SDS011;7282;49.204;10.652;2023-05-18T06:26:01;8.13;;;3.97;;
14394;SDS011;7282;49.204;10.652;2023-05-18T06:28:28;4.50;;;3.43;;
14394;SDS011;7282;49.204;10.652;2023-05-18T06:30:54;8.67;;;3.97;;
14394;SDS011;7282;49.204;10.652;2023-05-18T06:33:21;7.73;;;3.57;;
14394;SDS011;7282;49.204;10.652;2023-05-18T06:35:48;6.27;;;3.60;;
14394;SDS011;7282;49.204;10.652;2023-05-18T06:38:16;7.83;;;4.00;;
14394;SDS011;7282;49.204;10.652;2023-05-18T06:40:43;9.80;;;4.37;;
14394;SDS011;7282;49.204;10.652;2023-05-18T06:43:10;8.70;;;4.20;;
14394;SDS011;7282;49.204;10.652;2023-05-18T06:45:36;5.57;;;3.60;;
14394;SDS011;7282;49.204;10.652;2023-05-18T06:48:03;6.27;;;3.73;;
14394;SDS011;7282;49.204;10.652;2023-05-18T06:50:30;9.47;;;4.13;;
14394;SDS011;7282;49.204;10.652;2023-05-18T06:52:57;6.47;;;3.20;;
14394;SDS011;7282;49.204;10.652;2023-05-18T06:55:24;9.13;;;3.77;;
14394;SDS011;7282;49.204;10.652;2023-05-18T06:57:50;5.77;;;3.93;;
14394;SDS011;7282;49.204;10.652;2023-05-18T07:00:18;7.50;;;3.53;;
14394;SDS011;7282;49.204;10.652;2023-05-18T07:02:47;8.27;;;3.90;;
14394;SDS011;7282;49.204;10.652;2023-05-18T07:05:14;7.37;;;3.47;;
14394;SDS011;7282;49.204;10.652;2023-05-18T07:07:41;5.80;;;3.73;;
14394;SDS011;7282;49.204;10.652;2023-05-18T07:10:08;9.90;;;3.90;;
14394;SDS011;7282;49.204;10.652;2023-05-18T07:12:35;7.10;;;3.50;;
14394;SDS011;7282;49.204;10.652;2023-05-18T07:15:02;7.33;;;3.73;;
14394;SDS011;7282;49.204;10.652;2023-05-18T07:17:29;8.80;;;3.73;;
14394;SDS011;7282;49.204;10.652;2023-05-18T07:19:56;6.07;;;3.53;;
14394;SDS011;7282;49.204;10.652;2023-05-18T07:22:23;7.30;;;3.60;;
14394;SDS011;7282;49.204;10.652;2023-05-18T07:24:49;6.27;;;3.40;;
14394;SDS011;7282;49.204;10.652;2023-05-18T07:27:16;6.40;;;3.00;;
14394;SDS011;7282;49.204;10.652;2023-05-18T07:29:43;6.27;;;3.37;;
14394;SDS011;7282;49.204;10.652;2023-05-18T07:32:09;6.87;;;3.90;;
14394;SDS011;7282;49.204;10.652;2023-05-18T07:34:36;8.83;;;3.80;;
14394;SDS011;7282;49.204;10.652;2023-05-18T07:37:03;7.13;;;3.40;;
14394;SDS011;7282;49.204;10.652;2023-05-18T07:39:30;6.43;;;3.43;;
14394;SDS011;7282;49.204;10.652;2023-05-18T07:41:57;7.67;;;3.47;;
14394;SDS011;7282;49.204;10.652;2023-05-18T07:44:24;6.97;;;3.40;;
14394;SDS011;7282;49.204;10.652;2023-05-18T07:46:50;6.20;;;3.27;;
14394;SDS011;7282;49.204;10.652;2023-05-18T07:49:17;7.47;;;3.33;;
14394;SDS011;7282;49.204;10.652;2023-05-18T07:51:44;7.57;;;3.43;;
14394;SDS011;7282;49.204;10.652;2023-05-18T07:54:11;7.23;;;3.07;;
14394;SDS011;7282;49.204;10.652;2023-05-18T07:56:38;6.00;;;3.50;;
14394;SDS011;7282;49.204;10.652;2023-05-18T07:59:05;6.40;;;3.40;;
14394;SDS011;7282;49.204;10.652;2023-05-18T08:01:32;6.53;;;3.57;;
14394;SDS011;7282;49.204;10.652;2023-05-18T08:04:00;7.57;;;3.50;;
14394;SDS011;7282;49.204;10.652;2023-05-18T08:06:26;5.53;;;3.20;;
14394;SDS011;7282;49.204;10.652;2023-05-18T08:08:53;7.87;;;3.83;;
14394;SDS011;7282;49.204;10.652;2023-05-18T08:11:21;6.83;;;3.70;;
14394;SDS011;7282;49.204;10.652;2023-05-18T08:13:48;6.23;;;3.20;;
14394;SDS011;7282;49.204;10.652;2023-05-18T08:16:15;9.97;;;3.40;;
14394;SDS011;7282;49.204;10.652;2023-05-18T08:18:42;6.47;;;3.50;;
14394;SDS011;7282;49.204;10.652;2023-05-18T08:21:08;5.03;;;3.47;;
14394;SDS011;7282;49.204;10.652;2023-05-18T08:23:35;6.17;;;3.07;;
14394;SDS011;7282;49.204;10.652;2023-05-18T08:26:02;5.87;;;3.33;;
14394;SDS011;7282;49.204;10.652;2023-05-18T08:28:29;6.37;;;3.23;;
14394;SDS011;7282;49.204;10.652;2023-05-18T08:30:56;3.60;;;2.73;;
14394;SDS011;7282;49.204;10.652;2023-05-18T08:33:23;4.27;;;3.03;;
14394;SDS011;7282;49.204;10.652;2023-05-18T08:35:50;5.33;;;3.30;;
14394;SDS011;7282;49.204;10.652;2023-05-18T08:38:17;6.27;;;3.43;;
14394;SDS011;7282;49.204;10.652;2023-05-18T08:40:56;10.57;;;3.40;;
14394;SDS011;7282;49.204;10.652;2023-05-18T08:43:21;6.10;;;3.00;;
14394;SDS011;7282;49.204;10.652;2023-05-18T08:48:24;6.73;;;3.03;;
14394;SDS011;7282;49.204;10.652;2023-05-18T08:50:52;7.27;;;2.90;;
14394;SDS011;7282;49.204;10.652;2023-05-18T08:53:21;5.87;;;3.07;;
14394;SDS011;7282;49.204;10.652;2023-05-18T08:55:49;4.67;;;2.93;;
14394;SDS011;7282;49.204;10.652;2023-05-18T08:58:18;6.60;;;3.57;;
14394;SDS011;7282;49.204;10.652;2023-05-18T09:00:45;6.33;;;3.50;;
14394;SDS011;7282;49.204;10.652;2023-05-18T09:03:12;7.00;;;3.67;;
14394;SDS011;7282;49.204;10.652;2023-05-18T09:05:39;8.00;;;3.53;;
14394;SDS011;7282;49.204;10.652;2023-05-18T09:08:07;8.37;;;3.23;;
14394;SDS011;7282;49.204;10.652;2023-05-18T09:10:35;8.37;;;3.70;;
14394;SDS011;7282;49.204;10.652;2023-05-18T09:13:01;10.03;;;3.60;;
14394;SDS011;7282;49.204;10.652;2023-05-18T09:15:31;7.00;;;3.10;;
14394;SDS011;7282;49.204;10.652;2023-05-18T09:17:58;6.20;;;3.20;;
14394;SDS011;7282;49.204;10.652;2023-05-18T09:20:24;8.67;;;2.73;;
14394;SDS011;7282;49.204;10.652;2023-05-18T09:22:51;6.77;;;3.10;;
14394;SDS011;7282;49.204;10.652;2023-05-18T09:25:19;7.13;;;3.23;;
14394;SDS011;7282;49.204;10.652;2023-05-18T09:27:49;6.87;;;2.50;;
14394;SDS011;7282;49.204;10.652;2023-05-18T09:30:18;5.30;;;2.60;;
14394;SDS011;7282;49.204;10.652;2023-05-18T09:32:45;6.27;;;3.10;;
14394;SDS011;7282;49.204;10.652;2023-05-18T09:35:12;3.80;;;2.40;;
14394;SDS011;7282;49.204;10.652;2023-05-18T09:37:42;5.17;;;2.67;;
14394;SDS011;7282;49.204;10.652;2023-05-18T09:40:09;5.93;;;2.80;;
14394;SDS011;7282;49.204;10.652;2023-05-18T09:42:39;6.57;;;3.03;;
14394;SDS011;7282;49.204;10.652;2023-05-18T09:45:17;7.10;;;2.90;;
14394;SDS011;7282;49.204;10.652;2023-05-18T09:47:44;6.17;;;2.83;;
14394;SDS011;7282;49.204;10.652;2023-05-18T09:50:11;7.27;;;3.13;;
14394;SDS011;7282;49.204;10.652;2023-05-18T09:52:45;5.70;;;2.80;;
14394;SDS011;7282;49.204;10.652;2023-05-18T09:55:10;6.20;;;2.90;;
14394;SDS011;7282;49.204;10.652;2023-05-18T09:57:47;6.40;;;3.00;;
14394;SDS011;7282;49.204;10.652;2023-05-18T10:00:06;6.27;;;2.80;;
14394;SDS011;7282;49.204;10.652;2023-05-18T10:02:45;7.43;;;3.23;;
14394;SDS011;7282;49.204;10.652;2023-05-18T10:05:23;7.10;;;3.33;;
14394;SDS011;7282;49.204;10.652;2023-05-18T10:07:50;7.30;;;2.57;;
14394;SDS011;7282;49.204;10.652;2023-05-18T10:10:17;7.37;;;3.53;;
14394;SDS011;7282;49.204;10.652;2023-05-18T10:12:49;5.53;;;2.60;;
14394;SDS011;7282;49.204;10.652;2023-05-18T10:15:16;6.80;;;2.70;;
14394;SDS011;7282;49.204;10.652;2023-05-18T10:17:44;5.97;;;3.03;;
14394;SDS011;7282;49.204;10.652;2023-05-18T10:20:14;6.87;;;2.93;;
14394;SDS011;7282;49.204;10.652;2023-05-18T10:22:40;5.33;;;2.97;;
14394;SDS011;7282;49.204;10.652;2023-05-18T10:25:07;5.87;;;3.03;;
14394;SDS011;7282;49.204;10.652;2023-05-18T10:27:35;7.80;;;2.90;;
14394;SDS011;7282;49.204;10.652;2023-05-18T10:30:03;5.17;;;3.10;;
14394;SDS011;7282;49.204;10.652;2023-05-18T10:32:34;5.23;;;2.80;;
14394;SDS011;7282;49.204;10.652;2023-05-18T10:35:02;7.17;;;3.30;;
14394;SDS011;7282;49.204;10.652;2023-05-18T10:37:30;5.43;;;2.90;;
14394;SDS011;7282;49.204;10.652;2023-05-18T10:39:59;5.63;;;2.87;;
14394;SDS011;7282;49.204;10.652;2023-05-18T10:42:25;7.50;;;2.70;;
14394;SDS011;7282;49.204;10.652;2023-05-18T10:44:53;4.63;;;2.93;;
14394;SDS011;7282;49.204;10.652;2023-05-18T10:47:26;7.47;;;2.83;;
14394;SDS011;7282;49.204;10.652;2023-05-18T10:49:52;4.03;;;2.60;;
14394;SDS011;7282;49.204;10.652;2023-05-18T10:52:19;5.53;;;2.93;;
14394;SDS011;7282;49.204;10.652;2023-05-18T10:54:46;5.80;;;2.90;;
14394;SDS011;7282;49.204;10.652;2023-05-18T10:57:14;6.77;;;3.10;;
14394;SDS011;7282;49.204;10.652;2023-05-18T10:59:42;5.73;;;2.50;;
14394;SDS011;7282;49.204;10.652;2023-05-18T11:02:09;4.03;;;2.50;;
14394;SDS011;7282;49.204;10.652;2023-05-18T11:04:38;6.17;;;3.20;;
14394;SDS011;7282;49.204;10.652;2023-05-18T11:07:09;5.93;;;2.87;;
14394;SDS011;7282;49.204;10.652;2023-05-18T11:09:34;5.30;;;2.60;;
14394;SDS011;7282;49.204;10.652;2023-05-18T11:12:01;4.90;;;2.80;;
14394;SDS011;7282;49.204;10.652;2023-05-18T11:14:28;6.23;;;3.20;;
14394;SDS011;7282;49.204;10.652;2023-05-18T11:17:14;4.17;;;2.83;;
14394;SDS011;7282;49.204;10.652;2023-05-18T11:25:07;5.80;;;3.23;;
14394;SDS011;7282;49.204;10.652;2023-05-18T11:27:33;4.60;;;2.77;;
14394;SDS011;7282;49.204;10.652;2023-05-18T11:30:00;6.63;;;3.20;;
14394;SDS011;7282;49.204;10.652;2023-05-18T11:32:28;7.20;;;2.90;;
14394;SDS011;7282;49.204;10.652;2023-05-18T11:34:58;5.97;;;2.60;;
14394;SDS011;7282;49.204;10.652;2023-05-18T11:40:10;4.20;;;2.57;;
14394;SDS011;7282;49.204;10.652;2023-05-18T11:42:38;5.37;;;2.87;;
14394;SDS011;7282;49.204;10.652;2023-05-18T11:45:11;7.23;;;2.73;;
14394;SDS011;7282;49.204;10.652;2023-05-18T11:47:34;4.17;;;2.90;;
14394;SDS011;7282;49.204;10.652;2023-05-18T11:50:08;4.47;;;2.63;;
14394;SDS011;7282;49.204;10.652;2023-05-18T11:52:45;4.73;;;2.67;;
14394;SDS011;7282;49.204;10.652;2023-05-18T11:55:13;6.63;;;3.10;;
14394;SDS011;7282;49.204;10.652;2023-05-18T11:57:41;5.57;;;2.70;;
14394;SDS011;7282;49.204;10.652;2023-05-18T12:00:09;5.87;;;2.70;;
14394;SDS011;7282;49.204;10.652;2023-05-18T12:02:37;6.10;;;2.73;;
14394;SDS011;7282;49.204;10.652;2023-05-18T12:05:09;7.47;;;2.97;;
14394;SDS011;7282;49.204;10.652;2023-05-18T12:07:33;4.67;;;2.73;;
14394;SDS011;7282;49.204;10.652;2023-05-18T12:10:07;6.80;;;2.77;;
14394;SDS011;7282;49.204;10.652;2023-05-18T12:12:34;4.43;;;2.87;;
14394;SDS011;7282;49.204;10.652;2023-05-18T12:15:02;4.77;;;2.90;;
14394;SDS011;7282;49.204;10.652;2023-05-18T12:17:41;4.57;;;2.60;;
14394;SDS011;7282;49.204;10.652;2023-05-18T12:20:11;6.37;;;2.90;;
14394;SDS011;7282;49.204;10.652;2023-05-18T12:22:43;7.90;;;3.00;;
14394;SDS011;7282;49.204;10.652;2023-05-18T12:25:07;5.03;;;2.50;;
14394;SDS011;7282;49.204;10.652;2023-05-18T12:27:42;6.33;;;2.70;;
14394;SDS011;7282;49.204;10.652;2023-05-18T12:32:37;5.17;;;2.50;;
14394;SDS011;7282;49.204;10.652;2023-05-18T12:35:04;4.50;;;2.63;;
14394;SDS011;7282;49.204;10.652;2023-05-18T12:37:40;5.37;;;2.70;;
14394;SDS011;7282;49.204;10.652;2023-05-18T12:40:02;6.37;;;3.00;;
14394;SDS011;7282;49.204;10.652;2023-05-18T12:42:29;5.30;;;2.90;;
14394;SDS011;7282;49.204;10.652;2023-05-18T12:44:56;4.90;;;2.60;;
14394;SDS011;7282;49.204;10.652;2023-05-18T12:47:22;6.37;;;2.53;;
14394;SDS011;7282;49.204;10.652;2023-05-18T12:49:49;5.17;;;2.73;;
14394;SDS011;7282;49.204;10.652;2023-05-18T12:52:16;7.13;;;2.70;;
14394;SDS011;7282;49.204;10.652;2023-05-18T12:54:49;6.67;;;2.77;;
14394;SDS011;7282;49.204;10.652;2023-05-18T12:57:18;4.27;;;2.73;;
14394;SDS011;7282;49.204;10.652;2023-05-18T12:59:46;4.90;;;2.83;;
14394;SDS011;7282;49.204;10.652;2023-05-18T13:02:28;4.03;;;2.33;;
14394;SDS011;7282;49.204;10.652;2023-05-18T13:05:02;4.73;;;2.80;;
14394;SDS011;7282;49.204;10.652;2023-05-18T13:07:29;6.83;;;3.27;;
14394;SDS011;7282;49.204;10.652;2023-05-18T13:10:10;5.27;;;2.90;;
14394;SDS011;7282;49.204;10.652;2023-05-18T13:12:43;4.73;;;2.40;;
14394;SDS011;7282;49.204;10.652;2023-05-18T13:15:14;4.50;;;2.50;;
14394;SDS011;7282;49.204;10.652;2023-05-18T13:18:00;4.17;;;2.63;;
14394;SDS011;7282;49.204;10.652;2023-05-18T13:23:15;6.00;;;2.90;;
14394;SDS011;7282;49.204;10.652;2023-05-18T13:25:43;4.67;;;2.77;;
14394;SDS011;7282;49.204;10.652;2023-05-18T13:28:10;4.90;;;2.60;;
14394;SDS011;7282;49.204;10.652;2023-05-18T13:30:37;7.27;;;2.80;;
14394;SDS011;7282;49.204;10.652;2023-05-18T13:33:04;6.80;;;3.13;;
14394;SDS011;7282;49.204;10.652;2023-05-18T13:35:34;3.57;;;2.37;;
14394;SDS011;7282;49.204;10.652;2023-05-18T13:38:00;5.13;;;2.60;;
14394;SDS011;7282;49.204;10.652;2023-05-18T13:40:27;6.60;;;2.83;;
14394;SDS011;7282;49.204;10.652;2023-05-18T13:42:54;5.13;;;2.43;;
14394;SDS011;7282;49.204;10.652;2023-05-18T13:45:20;4.67;;;2.70;;
14394;SDS011;7282;49.204;10.652;2023-05-18T13:47:47;4.67;;;2.40;;
14394;SDS011;7282;49.204;10.652;2023-05-18T13:50:18;4.57;;;2.37;;
14394;SDS011;7282;49.204;10.652;2023-05-18T13:52:45;5.97;;;2.90;;
14394;SDS011;7282;49.204;10.652;2023-05-18T13:55:12;4.60;;;2.40;;
14394;SDS011;7282;49.204;10.652;2023-05-18T13:57:39;4.43;;;2.40;;
14394;SDS011;7282;49.204;10.652;2023-05-18T14:00:06;5.13;;;2.80;;
14394;SDS011;7282;49.204;10.652;2023-05-18T14:02:39;3.80;;;2.40;;
14394;SDS011;7282;49.204;10.652;2023-05-18T14:05:07;4.07;;;2.23;;
14394;SDS011;7282;49.204;10.652;2023-05-18T14:07:36;3.40;;;2.13;;
14394;SDS011;7282;49.204;10.652;2023-05-18T14:10:04;5.77;;;2.70;;
14394;SDS011;7282;49.204;10.652;2023-05-18T14:12:30;5.80;;;2.37;;
14394;SDS011;7282;49.204;10.652;2023-05-18T14:14:58;4.70;;;2.50;;
14394;SDS011;7282;49.204;10.652;2023-05-18T14:17:25;6.07;;;2.60;;
14394;SDS011;7282;49.204;10.652;2023-05-18T14:19:52;6.60;;;2.97;;
14394;SDS011;7282;49.204;10.652;2023-05-18T14:22:19;3.23;;;2.27;;
14394;SDS011;7282;49.204;10.652;2023-05-18T14:24:47;3.90;;;2.10;;
14394;SDS011;7282;49.204;10.652;2023-05-18T14:27:14;7.47;;;2.90;;
14394;SDS011;7282;49.204;10.652;2023-05-18T14:29:41;6.00;;;2.60;;
14394;SDS011;7282;49.204;10.652;2023-05-18T14:32:07;5.20;;;2.53;;
14394;SDS011;7282;49.204;10.652;2023-05-18T14:34:34;3.87;;;2.40;;
14394;SDS011;7282;49.204;10.652;2023-05-18T14:37:01;8.03;;;2.87;;
14394;SDS011;7282;49.204;10.652;2023-05-18T14:39:28;3.30;;;2.40;;
14394;SDS011;7282;49.204;10.652;2023-05-18T14:41:54;3.50;;;2.20;;
14394;SDS011;7282;49.204;10.652;2023-05-18T14:44:21;3.67;;;2.30;;
14394;SDS011;7282;49.204;10.652;2023-05-18T14:46:48;4.10;;;2.43;;
14394;SDS011;7282;49.204;10.652;2023-05-18T14:49:14;5.97;;;2.50;;
14394;SDS011;7282;49.204;10.652;2023-05-18T14:51:41;3.80;;;2.13;;
14394;SDS011;7282;49.204;10.652;2023-05-18T14:54:08;3.60;;;2.17;;
14394;SDS011;7282;49.204;10.652;2023-05-18T14:56:34;6.30;;;2.53;;
14394;SDS011;7282;49.204;10.652;2023-05-18T14:59:01;4.00;;;2.20;;
14394;SDS011;7282;49.204;10.652;2023-05-18T15:01:28;3.80;;;2.03;;
14394;SDS011;7282;49.204;10.652;2023-05-18T15:03:55;5.67;;;2.60;;
14394;SDS011;7282;49.204;10.652;2023-05-18T15:06:21;4.73;;;2.30;;
14394;SDS011;7282;49.204;10.652;2023-05-18T15:08:48;5.60;;;2.47;;
14394;SDS011;7282;49.204;10.652;2023-05-18T15:11:15;5.07;;;2.60;;
14394;SDS011;7282;49.204;10.652;2023-05-18T15:13:41;5.97;;;2.50;;